Time;durP1;ratioP1;P1;durP2;ratioP2;P2;SDS_P1;SDS_P2;PMS_P1;PMS_P2;Temp;Humidity;BMP_temperature;BMP_pressure;BME280_temperature;BME280_humidity;BME280_pressure;Samples;Min_cycle;Max_cycle;Signal;HPM_P1;HPM_P2
2022/01/23 00:01:09;;;;;;;35.70;17.83;;;;;;;-0.70;100.00;101610.50;4958209;29;20185;-72
2022/01/23 00:03:55;;;;;;;35.95;15.88;;;;;;;-1.22;100.00;101604.84;4958806;28;20099;-72
2022/01/23 00:06:41;;;;;;;32.10;16.15;;;;;;;-0.94;100.00;101620.63;4943767;29;20031;-73
2022/01/23 00:09:27;;;;;;;27.27;15.60;;;;;;;-1.18;100.00;101628.97;4944397;29;20027;-73
2022/01/23 00:12:20;;;;;;;29.02;15.10;;;;;;;-1.12;100.00;101624.13;4958764;28;20058;-73
2022/01/23 00:18:10;;;;;;;28.05;14.23;;;;;;;-0.74;100.00;101636.91;4957504;29;20055;-72
2022/01/23 00:20:56;;;;;;;28.95;14.63;;;;;;;-1.04;100.00;101627.91;4957938;29;20061;-72
2022/01/23 00:32:36;;;;;;;25.52;14.13;;;;;;;-0.96;100.00;101653.09;4957674;29;20376;-72
2022/01/23 00:35:22;;;;;;;28.88;14.35;;;;;;;-0.84;100.00;101651.06;4943210;28;20037;-73
2022/01/23 00:38:09;;;;;;;29.38;12.82;;;;;;;-0.93;100.00;101642.06;4956425;29;20365;-72
2022/01/23 00:40:55;;;;;;;23.95;13.65;;;;;;;-0.88;100.00;101643.16;4958045;29;20113;-72
2022/01/23 00:43:43;;;;;;;23.65;13.00;;;;;;;-1.00;100.00;101642.63;4943362;29;20540;-72
2022/01/23 00:46:34;;;;;;;26.42;13.60;;;;;;;-1.09;100.00;101650.81;4957287;28;20031;-73
2022/01/23 00:49:26;;;;;;;26.17;14.55;;;;;;;-1.04;100.00;101653.59;4943152;29;20078;-73
2022/01/23 00:52:17;;;;;;;29.27;14.05;;;;;;;-1.53;100.00;101654.81;4942778;29;20035;-72
2022/01/23 00:55:04;;;;;;;28.48;14.88;;;;;;;-1.95;100.00;101653.72;4957292;29;20114;-72
2022/01/23 00:57:50;;;;;;;27.85;14.57;;;;;;;-2.60;100.00;101661.59;4942767;29;20033;-73
2022/01/23 01:00:37;;;;;;;29.85;15.38;;;;;;;-2.71;100.00;101662.72;4957241;29;20027;-72
2022/01/23 01:03:23;;;;;;;33.33;17.08;;;;;;;-2.54;100.00;101656.75;4957497;29;20050;-72
2022/01/23 01:06:09;;;;;;;31.48;16.17;;;;;;;-2.16;100.00;101652.69;4942457;29;20028;-72
2022/01/23 01:09:01;;;;;;;33.55;16.85;;;;;;;-2.05;100.00;101660.91;4957576;28;20090;-72
2022/01/23 01:14:58;;;;;;;36.67;16.70;;;;;;;-2.13;100.00;101647.69;4956286;29;20046;-73
2022/01/23 01:35:55;;;;;;;28.17;15.00;;;;;;;-2.29;100.00;101646.91;4956279;28;20026;-74
2022/01/23 01:38:40;;;;;;;30.10;14.77;;;;;;;-1.77;100.00;101651.97;4956425;29;20065;-73
2022/01/23 01:41:26;;;;;;;25.70;13.15;;;;;;;-2.27;100.00;101648.72;4956064;29;20418;-73
2022/01/23 01:44:12;;;;;;;26.15;13.68;;;;;;;-2.31;100.00;101654.50;4956004;29;20031;-74
2022/01/23 01:46:58;;;;;;;30.02;14.25;;;;;;;-1.99;100.00;101646.66;4957380;28;20500;-73
2022/01/23 01:49:46;;;;;;;27.65;15.52;;;;;;;-1.72;100.00;101650.50;4956278;29;20340;-73
2022/01/23 01:52:34;;;;;;;31.95;16.13;;;;;;;-1.58;100.00;101656.28;4956666;29;20046;-73
2022/01/23 01:55:28;;;;;;;30.67;15.07;;;;;;;-1.62;100.00;101651.81;4956175;28;20023;-73
2022/01/23 02:13:56;;;;;;;26.70;14.15;;;;;;;-2.16;100.00;101667.19;4955675;29;20369;-73
2022/01/23 02:56:50;;;;;;;23.13;11.60;;;;;;;-2.86;100.00;101708.13;4900861;29;20044;-73
2022/01/23 02:59:39;;;;;;;22.88;10.82;;;;;;;-2.87;100.00;101703.78;4900917;29;20025;-72
2022/01/23 03:02:38;;;;;;;17.45;9.73;;;;;;;-2.85;100.00;101700.47;4955326;29;20479;-73
2022/01/23 03:08:44;;;;;;;19.55;10.32;;;;;;;-2.99;100.00;101721.06;4958496;29;20066;-73
2022/01/23 03:26:48;;;;;;;17.92;9.23;;;;;;;-2.82;100.00;101740.81;4959058;28;20054;-72
2022/01/23 03:30:02;;;;;;;17.13;9.00;;;;;;;-2.99;100.00;101739.91;4957957;29;20507;-73
2022/01/23 03:32:44;;;;;;;15.82;8.85;;;;;;;-2.73;100.00;101741.28;4958204;29;20031;-73
2022/01/23 03:35:30;;;;;;;15.70;8.52;;;;;;;-2.91;100.00;101728.38;4957855;28;20031;-73
2022/01/23 03:38:16;;;;;;;20.30;8.40;;;;;;;-2.99;100.00;101728.75;4957421;29;20114;-73
2022/01/23 03:41:02;;;;;;;14.38;8.38;;;;;;;-2.82;100.00;101728.84;4957572;29;20110;-72
2022/01/23 03:43:48;;;;;;;14.43;8.93;;;;;;;-3.02;100.00;101720.94;4958502;29;20532;-73
2022/01/23 03:49:33;;;;;;;17.05;8.65;;;;;;;-3.40;100.00;101716.34;4957281;29;20360;-72
2022/01/23 03:52:19;;;;;;;15.02;8.93;;;;;;;-3.42;100.00;101710.25;4944131;29;20042;-73
2022/01/23 03:57:46;;;;;;;16.63;8.93;;;;;;;-3.47;100.00;101713.34;5612361;23;20073;-72
2022/01/23 04:00:32;;;;;;;16.50;8.68;;;;;;;-3.49;100.00;101712.41;4957389;29;20106;-73
2022/01/23 04:03:19;;;;;;;20.50;9.52;;;;;;;-3.46;100.00;101721.13;4957231;29;20046;-72
2022/01/23 04:06:05;;;;;;;19.38;9.25;;;;;;;-3.90;100.00;101727.19;4943983;29;20039;-72
2022/01/23 04:08:50;;;;;;;17.17;9.43;;;;;;;-3.59;100.00;101730.63;4943492;29;20027;-73
2022/01/23 04:11:36;;;;;;;23.65;9.52;;;;;;;-3.50;100.00;101724.31;4944048;29;20035;-73
2022/01/23 04:14:24;;;;;;;20.30;8.93;;;;;;;-3.58;100.00;101737.53;4956692;29;20114;-74
2022/01/23 04:46:09;;;;;;;18.63;9.77;;;;;;;-3.54;100.00;101744.56;4958246;28;20071;-72
2022/01/23 05:01:57;;;;;;;18.58;9.52;;;;;;;-3.28;100.00;101746.84;4956157;29;20050;-73
2022/01/23 05:04:44;;;;;;;17.80;9.02;;;;;;;-3.28;100.00;101749.41;4943888;29;20476;-73
2022/01/23 05:07:30;;;;;;;18.13;9.65;;;;;;;-3.33;100.00;101748.28;4942370;29;20039;-72
2022/01/23 05:10:16;;;;;;;17.10;9.77;;;;;;;-3.34;100.00;101756.78;4957538;29;20031;-72
2022/01/23 05:13:02;;;;;;;19.20;10.02;;;;;;;-3.28;100.00;101768.25;4956178;29;20023;-72
2022/01/23 05:15:48;;;;;;;19.83;10.00;;;;;;;-3.48;100.00;101773.97;4957391;28;20031;-73
2022/01/23 05:18:35;;;;;;;18.98;10.38;;;;;;;-3.24;100.00;101774.41;4956136;29;20027;-73
2022/01/23 05:27:46;;;;;;;20.65;10.40;;;;;;;-3.14;100.00;101766.44;5333253;23;20051;-72
2022/01/23 05:30:36;;;;;;;19.55;10.40;;;;;;;-3.25;100.00;101767.53;4956552;28;20468;-72
2022/01/23 05:33:22;;;;;;;21.70;10.70;;;;;;;-3.21;100.00;101772.00;4941705;29;20182;-73
2022/01/23 05:36:08;;;;;;;18.67;10.55;;;;;;;-3.49;100.00;101776.44;4943375;29;20027;-72
2022/01/23 05:38:53;;;;;;;18.65;10.38;;;;;;;-3.23;100.00;101774.50;4956744;28;20072;-72
2022/01/23 05:41:39;;;;;;;18.27;10.00;;;;;;;-3.27;100.00;101780.25;4956390;29;20066;-72
2022/01/23 05:44:25;;;;;;;20.30;11.02;;;;;;;-3.23;100.00;101784.72;4956424;28;20460;-72
2022/01/23 05:47:12;;;;;;;19.65;10.77;;;;;;;-3.20;100.00;101786.56;4956736;28;20049;-73
2022/01/23 05:49:57;;;;;;;17.95;11.15;;;;;;;-3.42;100.00;101788.78;4956421;28;20034;-72
2022/01/23 05:52:43;;;;;;;21.77;11.60;;;;;;;-3.18;100.00;101793.53;4956328;29;20046;-72
2022/01/23 05:55:29;;;;;;;20.08;11.00;;;;;;;-3.22;100.00;101793.31;4956195;28;20058;-73
2022/01/23 05:58:15;;;;;;;21.27;10.32;;;;;;;-3.16;100.00;101783.38;4956362;29;20356;-73
2022/01/23 06:01:03;;;;;;;18.55;10.90;;;;;;;-3.25;100.00;101788.91;4955761;29;20031;-73
2022/01/23 06:03:49;;;;;;;21.08;10.82;;;;;;;-3.20;100.00;101797.72;4957104;28;20047;-72
2022/01/23 06:06:35;;;;;;;18.63;10.40;;;;;;;-3.07;100.00;101796.69;4955253;28;20027;-72
2022/01/23 06:09:21;;;;;;;18.30;10.27;;;;;;;-2.79;100.00;101798.25;4956219;29;20097;-73
2022/01/23 06:12:08;;;;;;;20.30;10.02;;;;;;;-2.82;100.00;101799.78;4961812;28;20116;-73
2022/01/23 06:14:54;;;;;;;17.17;10.05;;;;;;;-2.77;100.00;101800.91;4948448;29;20019;-74
2022/01/23 06:17:39;;;;;;;19.75;10.02;;;;;;;-2.64;100.00;101808.41;4962001;29;20078;-73
2022/01/23 06:20:25;;;;;;;18.67;10.88;;;;;;;-2.72;100.00;101812.25;4962272;28;20023;-73
2022/01/23 06:23:12;;;;;;;19.45;10.15;;;;;;;-2.65;100.00;101804.09;4948557;28;20444;-73
2022/01/23 06:25:58;;;;;;;17.67;9.73;;;;;;;-2.86;100.00;101801.28;4949213;28;20468;-73
2022/01/23 06:32:28;;;;;;;18.13;10.10;;;;;;;-2.64;100.00;101823.81;4961085;29;20471;-72
2022/01/23 06:35:14;;;;;;;18.98;9.98;;;;;;;-2.46;100.00;101819.63;4963293;28;20448;-72
2022/01/23 06:37:59;;;;;;;18.42;10.00;;;;;;;-2.51;100.00;101821.06;4961276;28;20038;-73
2022/01/23 06:40:45;;;;;;;19.60;10.00;;;;;;;-2.57;100.00;101815.63;4955913;28;20027;-72
2022/01/23 06:43:31;;;;;;;20.27;10.93;;;;;;;-2.50;100.00;101815.13;4962292;28;20468;-73
2022/01/23 06:46:17;;;;;;;22.55;11.35;;;;;;;-2.47;100.00;101815.28;4962608;28;20037;-72
2022/01/23 06:49:02;;;;;;;24.20;11.32;;;;;;;-2.42;100.00;101816.41;4947641;29;20372;-73
2022/01/23 06:52:35;;;;;;;16.23;10.15;;;;;;;-2.30;100.00;101811.91;4962713;29;20023;-72
2022/01/23 06:55:21;;;;;;;17.30;9.75;;;;;;;-2.33;100.00;101814.34;4961560;28;20090;-73
2022/01/23 06:58:30;;;;;;;18.30;9.60;;;;;;;-2.26;100.00;101822.41;4962483;28;20448;-72
2022/01/23 07:01:16;;;;;;;17.80;9.52;;;;;;;-1.99;100.00;101818.69;4944226;29;20058;-72
2022/01/23 07:04:01;;;;;;;17.90;9.80;;;;;;;-2.20;100.00;101824.41;4961197;29;20043;-71
2022/01/23 07:06:47;;;;;;;19.70;10.02;;;;;;;-1.67;100.00;101821.16;4961167;28;20027;-73
2022/01/23 07:09:36;;;;;;;18.80;10.20;;;;;;;-1.87;100.00;101818.41;4948113;29;20050;-73
2022/01/23 07:12:22;;;;;;;18.33;9.93;;;;;;;-1.85;100.00;101814.22;4948285;29;20106;-72
2022/01/23 07:15:08;;;;;;;18.02;9.77;;;;;;;-1.86;100.00;101807.31;4961654;28;20027;-72
2022/01/23 07:17:54;;;;;;;18.50;9.73;;;;;;;-1.65;100.00;101816.09;4948774;29;20027;-72
2022/01/23 07:21:13;;;;;;;16.13;9.60;;;;;;;-1.81;100.00;101817.00;4961091;29;20460;-73
2022/01/23 07:23:59;;;;;;;21.00;9.73;;;;;;;-1.68;100.00;101811.66;4944800;28;20045;-72
2022/01/23 07:32:23;;;;;;;16.08;9.70;;;;;;;-1.33;100.00;101808.22;5074272;23;20043;-72
2022/01/23 07:35:08;;;;;;;18.33;9.43;;;;;;;-1.19;100.00;101800.34;4957957;29;20412;-73
2022/01/23 07:37:54;;;;;;;18.05;10.40;;;;;;;-0.94;100.00;101804.91;4938845;29;20027;-73
2022/01/23 07:40:40;;;;;;;18.90;10.70;;;;;;;-0.99;100.00;101807.28;4925643;29;20039;-72
2022/01/23 07:43:26;;;;;;;18.50;10.30;;;;;;;-0.82;100.00;101805.47;4938861;29;20044;-72
2022/01/23 07:53:15;;;;;;;18.38;10.07;;;;;;;-0.63;100.00;101820.94;5238180;23;20055;-73
2022/01/23 07:56:02;;;;;;;20.50;10.25;;;;;;;-0.53;100.00;101821.41;4958921;28;20030;-72
2022/01/23 07:58:48;;;;;;;18.10;10.18;;;;;;;-0.64;100.00;101821.75;4958601;29;20041;-73
2022/01/23 08:01:36;;;;;;;16.73;9.38;;;;;;;-0.23;100.00;101814.13;4944312;29;20401;-72
2022/01/23 08:04:21;;;;;;;15.95;9.88;;;;;;;0.00;100.00;101814.28;4957305;29;20103;-74
2022/01/23 08:07:20;;;;;;;17.20;10.45;;;;;;;-0.17;100.00;101816.97;4944131;29;20126;-73
2022/01/23 08:10:08;;;;;;;17.30;9.95;;;;;;;-0.29;100.00;101819.91;4958259;28;20032;-74
2022/01/23 08:12:54;;;;;;;18.52;10.23;;;;;;;-0.54;100.00;101819.66;4958335;29;20047;-72
2022/01/23 08:15:40;;;;;;;19.52;11.18;;;;;;;-0.01;100.00;101821.94;4944468;28;20504;-73
2022/01/23 08:19:22;;;;;;;19.63;10.40;;;;;;;0.08;100.00;101819.75;4958043;29;20027;-73
2022/01/23 08:22:08;;;;;;;20.95;10.82;;;;;;;-0.51;100.00;101811.19;4943478;29;20033;-72
2022/01/23 08:24:55;;;;;;;17.73;10.48;;;;;;;-0.22;100.00;101814.19;4957664;29;20023;-72
2022/01/23 08:31:23;;;;;;;19.98;11.23;;;;;;;-0.12;100.00;101812.91;4957301;29;20475;-72
2022/01/23 08:34:08;;;;;;;19.00;10.70;;;;;;;0.24;100.00;101819.56;4957644;28;20042;-72
2022/01/23 08:36:55;;;;;;;18.40;10.63;;;;;;;-0.28;100.00;101818.22;4957733;28;20094;-72
2022/01/23 08:39:41;;;;;;;19.65;11.05;;;;;;;-0.30;100.00;101819.81;4944165;29;20149;-72
2022/01/23 08:42:27;;;;;;;19.42;11.07;;;;;;;-0.31;100.00;101818.06;4944357;29;20058;-73
2022/01/23 08:45:14;;;;;;;20.75;10.93;;;;;;;-0.30;100.00;101820.72;4958008;29;20034;-72
2022/01/23 08:48:00;;;;;;;25.13;11.82;;;;;;;-0.11;100.00;101809.50;4944544;28;20042;-72
2022/01/23 08:50:48;;;;;;;18.23;10.05;;;;;;;-0.25;100.00;101808.03;4957675;29;20031;-72
2022/01/23 08:53:34;;;;;;;20.73;10.48;;;;;;;-0.34;100.00;101818.81;4956663;29;20062;-72
2022/01/23 08:56:20;;;;;;;17.23;10.23;;;;;;;0.08;100.00;101805.19;4956212;28;20069;-72
2022/01/23 08:59:06;;;;;;;20.30;10.50;;;;;;;-0.22;100.00;101811.63;4956481;29;20345;-72
2022/01/23 09:01:52;;;;;;;19.42;10.00;;;;;;;0.34;100.00;101811.41;4943737;29;20069;-74
2022/01/23 09:04:38;;;;;;;17.65;10.07;;;;;;;0.13;100.00;101801.91;4956206;29;20019;-72
2022/01/23 09:07:23;;;;;;;21.13;10.13;;;;;;;0.33;100.00;101798.47;4957532;28;20135;-72
2022/01/23 09:10:10;;;;;;;20.13;11.65;;;;;;;0.64;100.00;101791.13;4956366;29;20023;-73
2022/01/23 09:15:55;;;;;;;19.23;10.60;;;;;;;0.32;100.00;101794.13;4957730;28;20053;-72
2022/01/23 09:18:41;;;;;;;21.42;11.07;;;;;;;0.31;100.00;101790.66;4943303;28;20041;-72
2022/01/23 09:21:26;;;;;;;18.13;10.80;;;;;;;0.21;100.00;101804.00;4956324;29;20477;-71
2022/01/23 09:24:12;;;;;;;17.90;9.45;;;;;;;0.14;100.00;101778.78;4956851;29;20138;-71
2022/01/23 09:27:07;;;;;;;19.27;10.13;;;;;;;0.65;100.00;101780.88;4956691;28;20089;-72
2022/01/23 09:29:54;;;;;;;17.20;10.23;;;;;;;0.28;100.00;101774.22;4943173;28;20039;-72
2022/01/23 09:32:42;;;;;;;15.77;9.55;;;;;;;0.64;100.00;101773.09;4956735;29;20031;-73
2022/01/23 09:35:28;;;;;;;17.77;9.63;;;;;;;0.58;100.00;101758.25;4956633;28;20093;-72
2022/01/23 09:38:13;;;;;;;17.77;9.48;;;;;;;0.66;100.00;101762.00;4955358;29;20108;-73
2022/01/23 09:41:01;;;;;;;15.98;9.05;;;;;;;0.93;100.00;101760.50;4955887;29;20097;-72
2022/01/23 09:43:47;;;;;;;14.77;9.68;;;;;;;0.61;100.00;101755.81;4955282;29;20357;-72
2022/01/23 09:46:33;;;;;;;19.25;10.52;;;;;;;0.27;100.00;101755.28;4956323;28;20118;-72
2022/01/23 09:49:18;;;;;;;15.98;9.20;;;;;;;0.71;100.00;101744.13;4956950;28;20041;-72
2022/01/23 09:52:07;;;;;;;18.98;9.23;;;;;;;0.91;100.00;101748.31;4957166;28;20059;-72
2022/01/23 09:57:49;;;;;;;15.98;9.07;;;;;;;0.95;100.00;101745.94;5948646;23;20062;-72
2022/01/23 10:00:34;;;;;;;14.80;8.98;;;;;;;0.97;100.00;101749.47;4955231;29;20039;-71
2022/01/23 10:03:23;;;;;;;17.02;9.35;;;;;;;0.93;100.00;101752.75;4955851;29;20028;-72
2022/01/23 10:06:10;;;;;;;19.20;9.95;;;;;;;0.78;100.00;101754.75;4942423;29;20463;-71
2022/01/23 10:08:56;;;;;;;17.98;10.27;;;;;;;0.98;100.00;101750.31;4954972;29;20031;-73
2022/01/23 10:11:43;;;;;;;21.73;10.57;;;;;;;0.90;100.00;101751.72;4948957;28;20452;-72
2022/01/23 10:14:29;;;;;;;19.20;11.15;;;;;;;0.81;100.00;101748.81;4941942;29;20063;-72
2022/01/23 10:17:15;;;;;;;19.63;11.30;;;;;;;0.93;100.00;101739.84;4942986;29;20098;-72
2022/01/23 10:20:02;;;;;;;20.70;11.45;;;;;;;0.89;100.00;101750.88;4955263;29;20027;-72
2022/01/23 10:22:51;;;;;;;19.73;11.60;;;;;;;0.79;100.00;101747.88;4956687;29;20023;-73
2022/01/23 10:25:43;;;;;;;17.48;9.85;;;;;;;0.91;100.00;101746.63;4956442;28;20349;-72
2022/01/23 10:28:30;;;;;;;19.40;9.73;;;;;;;1.13;100.00;101741.47;4942620;29;20019;-71
2022/01/23 10:31:16;;;;;;;14.32;8.68;;;;;;;0.73;100.00;101738.22;4956296;29;20178;-72
2022/01/23 10:34:02;;;;;;;15.45;9.15;;;;;;;1.26;100.00;101735.03;4956272;29;20400;-73
2022/01/23 10:36:50;;;;;;;14.07;8.40;;;;;;;1.02;100.00;101737.59;4955943;28;20031;-73
2022/01/23 10:39:46;;;;;;;15.02;8.32;;;;;;;0.91;100.00;101743.16;4941630;29;20034;-73
2022/01/23 10:48:48;;;;;;;17.30;9.50;;;;;;;1.21;100.00;101734.00;4956298;28;20083;-72
2022/01/23 10:51:36;;;;;;;19.77;10.38;;;;;;;1.15;100.00;101734.63;4954878;29;20464;-72
2022/01/23 10:54:24;;;;;;;16.30;9.02;;;;;;;1.45;100.00;101727.13;4941919;29;20098;-72
2022/01/23 10:57:09;;;;;;;15.13;8.98;;;;;;;1.45;100.00;101733.13;4942358;29;20106;-72
2022/01/23 10:59:55;;;;;;;15.05;8.73;;;;;;;1.47;100.00;101728.03;4946365;29;20396;-72
2022/01/23 11:02:42;;;;;;;17.73;9.52;;;;;;;1.36;100.00;101722.50;4944788;29;20034;-72
2022/01/23 11:05:37;;;;;;;19.73;10.20;;;;;;;1.61;100.00;101721.66;4958378;28;20085;-72
2022/01/23 11:08:25;;;;;;;15.65;9.88;;;;;;;1.74;100.00;101709.22;4959201;29;20058;-73
2022/01/23 11:11:11;;;;;;;21.33;9.95;;;;;;;1.58;100.00;101714.69;4959641;29;20073;-73
2022/01/23 11:17:24;;;;;;;20.42;11.05;;;;;;;1.58;100.00;101706.03;4958979;28;20126;-72
2022/01/23 11:20:10;;;;;;;20.67;11.35;;;;;;;1.35;100.00;101707.84;4945545;28;20094;-72
2022/01/23 11:23:13;;;;;;;18.67;10.68;;;;;;;1.48;100.00;101698.81;4945282;29;20035;-73
2022/01/23 11:26:00;;;;;;;24.20;11.73;;;;;;;1.84;100.00;101685.44;4959446;28;20471;-73
2022/01/23 11:28:47;;;;;;;20.20;11.40;;;;;;;1.92;100.00;101694.31;4959242;29;20042;-73
2022/01/23 11:31:33;;;;;;;20.70;11.27;;;;;;;1.96;100.00;101684.94;4944880;29;20035;-72
2022/01/23 11:34:22;;;;;;;20.27;11.52;;;;;;;2.25;100.00;101684.19;4945954;29;20035;-73
2022/01/23 11:37:08;;;;;;;19.73;10.95;;;;;;;2.03;100.00;101682.63;4957580;28;20086;-72
2022/01/23 11:39:59;;;;;;;18.02;10.98;;;;;;;2.51;100.00;101686.72;4959992;28;20364;-73
2022/01/23 11:55:06;;;;;;;15.35;9.40;;;;;;;2.37;100.00;101687.13;4958161;29;20449;-72
2022/01/23 11:57:52;;;;;;;15.00;9.10;;;;;;;2.45;100.00;101678.75;4945362;29;20043;-73
2022/01/23 12:00:40;;;;;;;15.45;8.35;;;;;;;2.22;100.00;101671.16;4957568;29;20039;-72
2022/01/23 12:03:27;;;;;;;12.73;7.72;;;;;;;2.31;100.00;101677.47;4957336;29;20035;-72
2022/01/23 12:06:13;;;;;;;15.93;8.20;;;;;;;2.48;100.00;101677.97;4957601;28;20130;-73
2022/01/23 12:09:17;;;;;;;12.80;7.45;;;;;;;2.10;100.00;101675.94;4957171;28;20031;-74
2022/01/23 12:18:32;;;;;;;13.80;7.35;;;;;;;2.48;96.70;101676.28;4958550;28;20086;-73
2022/01/23 12:21:29;;;;;;;10.98;6.70;;;;;;;2.41;96.68;101676.06;4944817;29;20055;-73
2022/01/23 12:24:16;;;;;;;14.18;7.57;;;;;;;2.54;96.17;101673.88;4956813;29;20396;-72
2022/01/23 12:27:26;;;;;;;12.95;7.30;;;;;;;2.67;96.18;101673.41;4958161;28;20126;-73
2022/01/23 12:30:33;;;;;;;12.38;6.70;;;;;;;2.89;95.92;101664.56;4957290;29;20460;-72
2022/01/23 12:33:43;;;;;;;11.95;7.22;;;;;;;2.74;95.64;101664.97;4957106;29;20034;-73
2022/01/23 12:36:34;;;;;;;12.02;6.95;;;;;;;2.97;93.04;101665.66;4943976;29;20127;-72
2022/01/23 12:39:20;;;;;;;11.57;7.35;;;;;;;2.84;93.28;101660.94;4957594;29;20508;-72
2022/01/23 12:42:06;;;;;;;12.52;7.00;;;;;;;2.99;92.02;101656.22;4958144;29;20070;-72
2022/01/23 12:44:52;;;;;;;9.27;6.63;;;;;;;3.37;88.85;101653.81;4956511;29;20471;-73
2022/01/23 12:47:37;;;;;;;12.50;7.40;;;;;;;3.26;87.01;101649.19;4956482;28;20031;-73
2022/01/23 12:51:09;;;;;;;10.73;6.88;;;;;;;2.85;85.37;101654.97;4956489;29;20050;-72
2022/01/23 12:53:55;;;;;;;13.88;7.72;;;;;;;2.83;86.37;101652.31;4880336;29;20104;-73
2022/01/23 12:56:43;;;;;;;12.88;8.02;;;;;;;3.19;84.70;101653.34;4958450;28;20376;-73
2022/01/23 13:00:25;;;;;;;14.38;8.55;;;;;;;3.02;83.86;101657.16;4956245;29;20464;-74
2022/01/23 13:03:12;;;;;;;12.88;7.60;;;;;;;2.73;81.41;101654.59;4956967;29;20106;-74
2022/01/23 13:06:01;;;;;;;15.13;7.85;;;;;;;2.92;81.21;101657.75;4957285;28;20122;-73
2022/01/23 13:08:53;;;;;;;14.73;7.70;;;;;;;2.86;78.79;101660.16;4957572;28;20027;-73
2022/01/23 13:18:06;;;;;;;12.15;7.60;;;;;;;2.85;79.51;101654.97;4956560;29;20452;-73
2022/01/23 13:29:59;;;;;;;12.70;7.40;;;;;;;2.76;80.09;101665.03;4956189;29;20098;-72
2022/01/23 13:32:50;;;;;;;14.00;7.70;;;;;;;2.83;79.76;101670.44;4955542;29;20118;-71
2022/01/23 13:35:41;;;;;;;21.88;9.02;;;;;;;3.01;78.64;101668.34;4956699;28;20057;-73
2022/01/23 13:38:32;;;;;;;13.90;8.48;;;;;;;3.06;78.45;101677.13;4941869;29;20054;-72
2022/01/23 13:41:35;;;;;;;13.23;7.80;;;;;;;3.09;78.27;101669.44;4942042;29;20162;-73
2022/01/23 14:00:13;;;;;;;17.05;9.82;;;;;;;3.46;76.57;101673.91;4956456;28;20051;-74
2022/01/23 14:02:59;;;;;;;15.52;8.63;;;;;;;3.37;78.04;101665.88;4956360;29;20035;-72
2022/01/23 14:05:45;;;;;;;16.23;9.27;;;;;;;3.31;78.10;101663.13;4956799;28;20456;-73
2022/01/23 14:08:31;;;;;;;17.30;10.57;;;;;;;3.35;77.03;101662.38;4956293;29;20024;-72
2022/01/23 14:11:25;;;;;;;23.60;12.35;;;;;;;3.77;76.18;101661.75;4942274;29;20061;-72
2022/01/23 14:14:27;;;;;;;21.27;11.90;;;;;;;3.31;76.92;101668.31;4942176;29;20034;-72
2022/01/23 14:17:14;;;;;;;18.02;10.65;;;;;;;3.77;76.36;101666.06;4942435;29;20046;-73
2022/01/23 14:20:10;;;;;;;18.85;10.70;;;;;;;3.78;76.05;101665.25;4956102;29;20369;-72
2022/01/23 14:22:56;;;;;;;17.63;10.07;;;;;;;3.48;76.72;101673.09;4956315;29;20118;-71
2022/01/23 14:25:50;;;;;;;19.90;9.95;;;;;;;3.14;77.15;101675.63;4941621;28;20077;-73
2022/01/23 14:28:46;;;;;;;20.30;10.95;;;;;;;3.40;77.06;101677.22;4955298;29;20058;-72
2022/01/23 14:31:38;;;;;;;19.15;10.07;;;;;;;3.09;76.78;101684.97;4956724;28;20444;-73
2022/01/23 14:34:24;;;;;;;18.35;10.52;;;;;;;3.00;78.01;101681.25;4960755;28;20035;-72
2022/01/23 14:37:10;;;;;;;17.23;10.23;;;;;;;3.09;76.97;101692.75;4959811;28;20332;-73
2022/01/23 14:40:15;;;;;;;19.13;9.85;;;;;;;2.99;76.51;101689.84;4959330;29;20031;-74
2022/01/23 14:43:04;;;;;;;17.02;10.02;;;;;;;2.83;77.28;101704.06;4958817;29;20121;-73
2022/01/23 14:45:52;;;;;;;15.43;9.63;;;;;;;3.00;77.22;101702.84;4959876;28;20035;-73
2022/01/23 14:48:45;;;;;;;15.88;10.10;;;;;;;2.82;77.36;101704.88;4959722;29;20094;-73
2022/01/23 14:51:34;;;;;;;18.60;10.95;;;;;;;2.85;77.39;101702.41;4960856;28;20031;-74
2022/01/23 14:54:21;;;;;;;18.58;10.27;;;;;;;2.62;77.99;101705.16;4945858;29;20110;-73
2022/01/23 14:57:11;;;;;;;21.40;10.88;;;;;;;2.71;77.44;101708.00;4959080;28;20046;-73
2022/01/23 14:59:58;;;;;;;18.08;10.38;;;;;;;2.62;77.55;101708.59;4959052;29;20039;-73
2022/01/23 15:03:33;;;;;;;19.73;11.00;;;;;;;2.45;78.30;101714.13;4959284;29;20099;-72
2022/01/23 15:06:22;;;;;;;19.27;10.73;;;;;;;2.65;77.85;101723.34;4944784;29;20428;-73
2022/01/23 15:09:14;;;;;;;19.73;11.30;;;;;;;2.62;77.34;101721.53;4959626;29;20031;-73
2022/01/23 15:11:59;;;;;;;23.90;11.50;;;;;;;2.90;77.83;101718.94;4947133;28;20078;-73
2022/01/23 15:14:45;;;;;;;21.33;12.23;;;;;;;2.73;78.06;101725.31;4958379;29;20027;-73
2022/01/23 15:17:31;;;;;;;19.98;11.07;;;;;;;2.64;77.67;101727.66;4960127;28;20042;-73
2022/01/23 15:20:17;;;;;;;19.38;10.85;;;;;;;2.37;78.03;101725.94;4945644;29;20046;-72
2022/01/23 15:23:04;;;;;;;20.40;11.02;;;;;;;2.43;78.89;101732.16;4960039;29;20472;-72
2022/01/23 15:25:50;;;;;;;18.88;11.18;;;;;;;2.51;78.94;101733.28;4959065;28;20035;-72
2022/01/23 15:28:35;;;;;;;22.42;12.13;;;;;;;2.89;77.81;101730.13;4945185;29;20361;-73
2022/01/23 15:31:23;;;;;;;18.88;10.40;;;;;;;2.89;77.86;101739.63;4945534;29;20027;-73
2022/01/23 15:34:08;;;;;;;20.58;10.80;;;;;;;2.80;78.09;101731.56;4959857;28;20034;-74
2022/01/23 15:36:55;;;;;;;22.48;11.77;;;;;;;3.02;77.53;101741.72;4959464;28;20027;-72
2022/01/23 15:39:41;;;;;;;30.27;13.32;;;;;;;2.59;78.76;101744.75;4945927;28;20027;-71
2022/01/23 15:42:27;;;;;;;35.88;17.17;;;;;;;2.76;78.98;101750.41;4958493;29;20031;-74
2022/01/23 15:45:13;;;;;;;34.50;18.13;;;;;;;2.63;79.43;101756.03;4958469;28;20031;-73
2022/01/23 15:47:59;;;;;;;33.88;17.83;;;;;;;2.66;79.11;101758.75;4958285;29;20031;-72
2022/01/23 15:50:45;;;;;;;34.25;18.15;;;;;;;2.33;80.56;101755.09;4958582;29;20038;-73
2022/01/23 15:53:31;;;;;;;42.85;19.40;;;;;;;2.23;81.28;101763.38;4959225;29;20031;-73
2022/01/23 15:56:17;;;;;;;42.22;23.00;;;;;;;2.32;81.88;101764.56;4957584;28;20174;-73
2022/01/23 15:59:02;;;;;;;46.13;22.55;;;;;;;2.45;82.13;101769.28;4957934;29;20062;-73
2022/01/23 16:01:49;;;;;;;50.90;26.65;;;;;;;2.48;82.55;101777.13;4957857;29;20047;-73
2022/01/23 16:04:37;;;;;;;56.65;28.20;;;;;;;2.48;82.89;101771.97;4958789;28;20041;-73
2022/01/23 16:07:23;;;;;;;90.25;43.75;;;;;;;1.98;84.14;101776.31;4958151;28;20104;-72
2022/01/23 16:10:10;;;;;;;76.47;38.40;;;;;;;1.78;84.35;101777.34;4957843;29;20118;-73
2022/01/23 16:12:55;;;;;;;80.40;39.20;;;;;;;2.12;84.47;101782.81;4957450;29;20031;-73
2022/01/23 16:15:43;;;;;;;85.80;43.38;;;;;;;2.08;85.18;101780.94;4944925;28;20341;-73
2022/01/23 16:18:31;;;;;;;98.00;45.28;;;;;;;2.05;85.01;101786.91;4957325;29;20069;-73
2022/01/23 16:21:18;;;;;;;104.88;48.55;;;;;;;2.04;86.25;101787.75;4958219;29;20034;-73
2022/01/23 16:24:04;;;;;;;91.80;47.28;;;;;;;1.91;86.96;101792.44;4958706;28;20027;-72
2022/01/23 16:26:51;;;;;;;102.40;50.28;;;;;;;1.87;86.81;101790.56;4957863;28;20027;-73
2022/01/23 16:29:37;;;;;;;105.47;52.63;;;;;;;2.11;86.74;101797.47;4957798;29;20338;-73
2022/01/23 16:32:23;;;;;;;99.55;50.55;;;;;;;1.86;87.32;101802.63;4944823;28;20035;-72
2022/01/23 16:35:09;;;;;;;99.75;51.58;;;;;;;1.75;88.03;101798.78;4957466;29;20034;-73
2022/01/23 16:37:55;;;;;;;81.68;40.33;;;;;;;1.65;88.89;101801.84;4956571;29;20045;-72
2022/01/23 16:40:45;;;;;;;84.47;43.53;;;;;;;1.78;89.35;101800.59;4957475;29;20031;-73
2022/01/23 16:43:32;;;;;;;77.47;41.17;;;;;;;1.48;91.59;101809.84;4944080;29;20035;-72
2022/01/23 17:01:11;;;;;;;117.97;60.63;;;;;;;1.53;94.83;101839.28;5833995;23;20013;-73
2022/01/23 17:03:57;;;;;;;114.53;54.70;;;;;;;1.19;95.46;101832.00;4958898;29;20114;-73
2022/01/23 17:29:46;;;;;;;48.88;25.50;;;;;;;1.75;98.35;101863.38;5883052;23;20026;-72
2022/01/23 17:32:32;;;;;;;42.75;22.02;;;;;;;1.01;100.00;101872.59;4957507;29;20035;-75
2022/01/23 17:35:20;;;;;;;39.03;20.80;;;;;;;0.82;100.00;101876.94;4957404;28;20397;-73